Nearby METAR Reports

 

KSJC - San Jose, California, USA
Distance from station: NE 9mi, 14km
Updated: 05,12/2021 9:53am
Few Clouds
Few Clouds
 Wind from W
Wind: W 3 mph , 6 km/h
Temperature: 55°F , 13°C
Dew Point: 46°F , 8°C
Humidity: 72%
Barometer: 29.96 inHg , 1014.6 hPa
Clouds: Few Clouds
Visibility: 9 miles , 14 km
Cloud details: Few Clouds 700 ft
2021/05/12 13:53 KSJC 121353Z 28003KT 9SM FEW007 13/08 A2996 RMK AO2 SLP146 T01330083
KNUQ - Moffett Nas/Mtn, California, USA
Distance from station: N 9mi, 14km
Updated: 04,13/2021 6:40pm
NOT Current

 
2021/04/13 22:40 KNUQ 132240Z AUTO RMK AO2 PNO PWINO TSNO
KPAO - Palo Alto, California, USA
Distance from station: NNW 14mi, 23km
Updated: 05,12/2021 9:47am
Mist, Mostly cloudy
Mist, Mostly cloudy
 Wind from WNW
Wind: WNW 6 mph , 9 km/h
Temperature: 54°F , 12°C
Dew Point: 50°F , 10°C
Humidity: 88%
Barometer: 29.97 inHg , 1014.9 hPa
Summary: Mist
Clouds: Mostly cloudy
Visibility: 6 miles , 10 km
Cloud details: Mostly cloudy 700 ft
2021/05/12 13:47 KPAO 121347Z 29005KT 6SM BR BKN007 12/10 A2997
 
KRHV - San Jose/Reid, California, USA
Distance from station: ENE 12mi, 19km
Updated: 05,12/2021 10:00am
Clear
Clear
 Wind from calm
Wind: Calm
Temperature: 54°F , 12°C
Dew Point: 46°F , 8°C
Humidity: 77%
Barometer: 29.97 inHg , 1014.9 hPa
Clouds: Clear
Visibility: 10 miles , 16 km
2021/05/12 14:00 KRHV 121400Z 00000KT 10SM SKC 12/08 A2997
KOAK - Oakland, California, USA
Distance from station: NNW 31mi, 50km
Updated: 05,12/2021 9:53am
Mist, Overcast
Mist, Overcast
 Wind from N
Wind: N 6 mph , 9 km/h
Temperature: 52°F , 11°C
Dew Point: 48°F , 9°C
Humidity: 88%
Barometer: 29.98 inHg , 1015.2 hPa
Summary: Mist
Clouds: Overcast
Visibility: 6 miles , 10 km
Cloud details: Overcast 500 ft
2021/05/12 13:53 KOAK 121353Z 36005KT 6SM BR OVC005 11/09 A2998 RMK AO2 SLP153 T01110094
KSQL - San Carlos Airpo, California, USA
Distance from station: NW 21mi, 34km
Updated: 05,12/2021 9:55am
Overcast
Overcast
 Wind from NW
Wind: NW 5 mph , 7 km/h
Temperature: 54°F , 12°C
Dew Point: 50°F , 10°C
Humidity: 88%
Barometer: 29.98 inHg , 1015.2 hPa
Clouds: Overcast
Visibility: 8 miles , 13 km
Cloud details: Overcast 500 ft
2021/05/12 13:55 KSQL 121355Z AUTO 32004KT 8SM OVC005 12/10 A2998 RMK AO2
 
KSFO - San Francisco, California, USA
Distance from station: NW 30mi, 49km
Updated: 05,12/2021 9:56am
Overcast
Overcast
 Wind from WNW
Wind: WNW 8 mph , 13 km/h
Temperature: 52°F , 11°C
Dew Point: 46°F , 8°C
Humidity: 82%
Barometer: 29.97 inHg , 1014.9 hPa
Clouds: Overcast
Visibility: 8 miles , 13 km
Cloud details: Overcast 600 ft
2021/05/12 13:56 KSFO 121356Z 29007KT 8SM OVC006 11/08 A2997 RMK AO2 SLP148 T01110083
KE16 - San Martin, California, USA
Distance from station: ESE 27mi, 43km
Updated: 05,12/2021 10:15am
Fog, Overcast
Fog, Overcast
 Wind from SE
Wind: SE 7 mph , 11 km/h
Temperature: 48°F , 9°C
Wind Chill: 45°F , 7°C
Dew Point: 48°F , 9°C
Humidity: 100%
Barometer: 30.01 inHg , 1016.3 hPa
Summary: Fog
Clouds: Overcast
Visibility: less than 1/4 mile , 0.4 km
Cloud details: Overcast 200 ft
2021/05/12 14:15 KE16 121415Z AUTO 13006KT M1/4SM FG OVC002 09/09 A3001 RMK AO2
KWVI - Watsonville, California, USA
Distance from station: SSE 27mi, 44km
Updated: 05,12/2021 9:53am
Mist, Overcast
Mist, Overcast
 Wind from SW
Wind: SW 3 mph , 6 km/h
Temperature: 48°F , 9°C
Dew Point: 48°F , 9°C
Humidity: 100%
Barometer: 30.01 inHg , 1016.3 hPa
Summary: Mist
Clouds: Overcast
Visibility: 1 mile , 2 km
Cloud details: Overcast 200 ft
2021/05/12 13:53 KWVI 121353Z AUTO 22003KT 1SM BR OVC002 09/09 A3001 RMK AO2 SLP160 T00940089
 
KHAF - Half Moon Bay, California, USA
Distance from station: WNW 31mi, 50km
Updated: 05,12/2021 10:35am
Mist, Overcast
Mist, Overcast
 Wind from SE
Wind: SE 8 mph , 13 km/h
Temperature: 48°F , 9°C
Wind Chill: 44°F , 7°C
Dew Point: 48°F , 9°C
Humidity: 100%
Barometer: 30.01 inHg , 1016.3 hPa
Summary: Mist
Clouds: Overcast
Visibility: 1 1/4 miles , 2 km
Cloud details: Overcast 300 ft
2021/05/12 14:35 KHAF 121435Z AUTO 13007KT 1 1/4SM BR OVC003 09/09 A3001 RMK AO2
KHWD - Hayward, California, USA
Distance from station: N 28mi, 44km
Updated: 05,12/2021 9:54am
Mist, Overcast
Mist, Overcast
 Wind from NNW
Wind: NNW 6 mph , 9 km/h
Temperature: 52°F , 11°C
Dew Point: 50°F , 10°C
Humidity: 94%
Barometer: 29.97 inHg , 1014.9 hPa
Summary: Mist
Clouds: Overcast
Visibility: 4 miles , 6 km
Cloud details: Overcast 400 ft
2021/05/12 13:54 KHWD 121354Z 34005KT 4SM BR OVC004 11/10 A2997 RMK AO2 SLP158 T01110100
KLVK - Livermore, California, USA
Distance from station: NNE 31mi, 51km
Updated: 05,12/2021 9:53am
Clear
Clear
 Wind from calm
Wind: Calm
Temperature: 55°F , 13°C
Dew Point: 43°F , 6°C
Humidity: 63%
Barometer: 29.95 inHg , 1014.2 hPa
Clouds: Clear
Visibility: 10 miles , 16 km
2021/05/12 13:53 KLVK 121353Z 00000KT 10SM CLR 13/06 A2995 RMK AO2 SLP138 T01280056